sensor_id;sensor_type;location;lat;lon;timestamp;pressure;altitude;pressure_sealevel;temperature;humidity
26807;BME280;14380;49.910;6.792;2023-04-03T00:00:06;99808.53;;;4.47;88.08
26807;BME280;14380;49.910;6.792;2023-04-03T00:02:33;99810.31;;;4.46;89.22
26807;BME280;14380;49.910;6.792;2023-04-03T00:05:00;99807.03;;;4.29;88.54
26807;BME280;14380;49.910;6.792;2023-04-03T00:07:27;99808.56;;;4.45;88.01
26807;BME280;14380;49.910;6.792;2023-04-03T00:09:55;99811.16;;;4.49;88.45
26807;BME280;14380;49.910;6.792;2023-04-03T00:12:22;99806.81;;;4.47;87.42
26807;BME280;14380;49.910;6.792;2023-04-03T00:14:48;99807.88;;;4.32;89.54
26807;BME280;14380;49.910;6.792;2023-04-03T00:17:15;99811.41;;;4.27;89.87
26807;BME280;14380;49.910;6.792;2023-04-03T00:19:42;99813.03;;;4.37;91.31
26807;BME280;14380;49.910;6.792;2023-04-03T00:22:09;99811.44;;;4.25;89.37
26807;BME280;14380;49.910;6.792;2023-04-03T00:24:35;99813.38;;;4.09;90.79
26807;BME280;14380;49.910;6.792;2023-04-03T00:27:04;99801.97;;;4.16;94.05
26807;BME280;14380;49.910;6.792;2023-04-03T00:29:30;99816.00;;;4.08;91.57
26807;BME280;14380;49.910;6.792;2023-04-03T00:31:57;99800.25;;;4.14;92.98
26807;BME280;14380;49.910;6.792;2023-04-03T00:34:25;99805.81;;;3.86;94.11
26807;BME280;14380;49.910;6.792;2023-04-03T00:36:52;99807.53;;;3.87;93.41
26807;BME280;14380;49.910;6.792;2023-04-03T00:39:18;99810.03;;;3.98;93.82
26807;BME280;14380;49.910;6.792;2023-04-03T00:41:46;99809.19;;;3.93;90.56
26807;BME280;14380;49.910;6.792;2023-04-03T00:47:28;99808.44;;;3.81;92.00
26807;BME280;14380;49.910;6.792;2023-04-03T00:49:57;99799.75;;;3.79;88.70
26807;BME280;14380;49.910;6.792;2023-04-03T00:52:27;99797.97;;;3.84;89.43
26807;BME280;14380;49.910;6.792;2023-04-03T00:54:59;99796.19;;;3.88;91.06
26807;BME280;14380;49.910;6.792;2023-04-03T00:57:28;99800.75;;;3.67;93.91
26807;BME280;14380;49.910;6.792;2023-04-03T00:59:59;99796.53;;;3.55;94.78
26807;BME280;14380;49.910;6.792;2023-04-03T01:02:28;99798.19;;;3.66;96.32
26807;BME280;14380;49.910;6.792;2023-04-03T01:04:55;99802.66;;;3.53;96.05
26807;BME280;14380;49.910;6.792;2023-04-03T01:07:23;99791.41;;;3.48;98.99
26807;BME280;14380;49.910;6.792;2023-04-03T01:09:56;99794.22;;;3.24;97.22
26807;BME280;14380;49.910;6.792;2023-04-03T01:12:26;99791.38;;;3.46;93.32
26807;BME280;14380;49.910;6.792;2023-04-03T01:14:55;99788.00;;;3.36;94.68
26807;BME280;14380;49.910;6.792;2023-04-03T01:17:30;99788.97;;;3.27;93.72
26807;BME280;14380;49.910;6.792;2023-04-03T01:20:43;99792.50;;;3.19;94.28
26807;BME280;14380;49.910;6.792;2023-04-03T01:23:24;99793.28;;;3.30;95.56
26807;BME280;14380;49.910;6.792;2023-04-03T01:25:54;99788.09;;;3.27;94.01
26807;BME280;14380;49.910;6.792;2023-04-03T01:28:23;99784.53;;;3.34;94.91
26807;BME280;14380;49.910;6.792;2023-04-03T01:30:55;99789.03;;;3.18;96.28
26807;BME280;14380;49.910;6.792;2023-04-03T01:33:24;99793.31;;;3.27;95.33
26807;BME280;14380;49.910;6.792;2023-04-03T01:35:51;99795.22;;;3.06;98.45
26807;BME280;14380;49.910;6.792;2023-04-03T01:38:18;99796.09;;;3.08;98.21
26807;BME280;14380;49.910;6.792;2023-04-03T01:40:44;99792.84;;;2.69;100.00
26807;BME280;14380;49.910;6.792;2023-04-03T01:43:11;99796.53;;;2.34;100.00
26807;BME280;14380;49.910;6.792;2023-04-03T01:45:37;99799.88;;;2.56;100.00
26807;BME280;14380;49.910;6.792;2023-04-03T01:48:04;99798.06;;;2.71;100.00
26807;BME280;14380;49.910;6.792;2023-04-03T01:50:32;99799.84;;;2.65;100.00
26807;BME280;14380;49.910;6.792;2023-04-03T01:52:59;99803.44;;;2.41;100.00
26807;BME280;14380;49.910;6.792;2023-04-03T01:55:25;99800.81;;;2.47;100.00
26807;BME280;14380;49.910;6.792;2023-04-03T01:57:52;99794.81;;;2.34;100.00
26807;BME280;14380;49.910;6.792;2023-04-03T02:00:19;99799.09;;;2.40;100.00
26807;BME280;14380;49.910;6.792;2023-04-03T02:02:45;99805.25;;;2.28;100.00
26807;BME280;14380;49.910;6.792;2023-04-03T02:05:12;99800.09;;;2.14;100.00
26807;BME280;14380;49.910;6.792;2023-04-03T02:07:40;99802.78;;;1.96;100.00
26807;BME280;14380;49.910;6.792;2023-04-03T02:10:07;99806.19;;;2.08;100.00
26807;BME280;14380;49.910;6.792;2023-04-03T02:12:34;99800.88;;;2.40;100.00
26807;BME280;14380;49.910;6.792;2023-04-03T02:15:01;99801.78;;;2.28;100.00
26807;BME280;14380;49.910;6.792;2023-04-03T02:17:27;99806.13;;;2.22;100.00
26807;BME280;14380;49.910;6.792;2023-04-03T02:19:54;99802.56;;;2.42;100.00
26807;BME280;14380;49.910;6.792;2023-04-03T02:22:21;99808.84;;;2.01;100.00
26807;BME280;14380;49.910;6.792;2023-04-03T02:24:49;99806.16;;;2.15;100.00
26807;BME280;14380;49.910;6.792;2023-04-03T02:27:16;99799.28;;;2.00;100.00
26807;BME280;14380;49.910;6.792;2023-04-03T02:29:43;99806.28;;;1.81;100.00
26807;BME280;14380;49.910;6.792;2023-04-03T02:32:10;99802.78;;;1.92;100.00
26807;BME280;14380;49.910;6.792;2023-04-03T02:34:36;99798.44;;;1.91;100.00
26807;BME280;14380;49.910;6.792;2023-04-03T02:37:03;99802.78;;;1.97;100.00
26807;BME280;14380;49.910;6.792;2023-04-03T02:39:29;99802.75;;;2.02;100.00
26807;BME280;14380;49.910;6.792;2023-04-03T02:41:57;99801.84;;;2.11;100.00
26807;BME280;14380;49.910;6.792;2023-04-03T02:44:24;99798.44;;;1.90;100.00
26807;BME280;14380;49.910;6.792;2023-04-03T02:46:50;99802.81;;;1.85;100.00
26807;BME280;14380;49.910;6.792;2023-04-03T02:49:17;99799.41;;;1.52;100.00
26807;BME280;14380;49.910;6.792;2023-04-03T02:51:44;99803.69;;;1.77;100.00
26807;BME280;14380;49.910;6.792;2023-04-03T02:54:11;99806.28;;;1.81;100.00
26807;BME280;14380;49.910;6.792;2023-04-03T02:56:37;99796.69;;;1.93;100.00
26807;BME280;14380;49.910;6.792;2023-04-03T02:59:05;99803.66;;;1.85;100.00
26807;BME280;14380;49.910;6.792;2023-04-03T03:01:32;99803.72;;;1.65;100.00
26807;BME280;14380;49.910;6.792;2023-04-03T03:03:59;99805.41;;;1.85;100.00
26807;BME280;14380;49.910;6.792;2023-04-03T03:06:25;99802.78;;;1.83;100.00
26807;BME280;14380;49.910;6.792;2023-04-03T03:08:53;99808.06;;;1.74;100.00
26807;BME280;14380;49.910;6.792;2023-04-03T03:11:20;99813.25;;;1.71;100.00
26807;BME280;14380;49.910;6.792;2023-04-03T03:13:46;99808.94;;;1.70;100.00
26807;BME280;14380;49.910;6.792;2023-04-03T03:16:14;99810.66;;;1.71;100.00
26807;BME280;14380;49.910;6.792;2023-04-03T03:18:41;99810.69;;;1.49;100.00
26807;BME280;14380;49.910;6.792;2023-04-03T03:21:09;99808.94;;;1.60;100.00
26807;BME280;14380;49.910;6.792;2023-04-03T03:23:36;99807.22;;;1.45;100.00
26807;BME280;14380;49.910;6.792;2023-04-03T03:26:05;99802.88;;;1.52;100.00
26807;BME280;14380;49.910;6.792;2023-04-03T03:28:32;99809.81;;;1.56;100.00
26807;BME280;14380;49.910;6.792;2023-04-03T03:31:00;99808.91;;;1.56;100.00
26807;BME280;14380;49.910;6.792;2023-04-03T03:33:28;99801.09;;;1.71;100.00
26807;BME280;14380;49.910;6.792;2023-04-03T03:35:55;99806.34;;;1.51;100.00
26807;BME280;14380;49.910;6.792;2023-04-03T03:38:22;99811.56;;;1.53;100.00
26807;BME280;14380;49.910;6.792;2023-04-03T03:40:49;99802.84;;;1.58;100.00
26807;BME280;14380;49.910;6.792;2023-04-03T03:43:16;99802.84;;;1.57;100.00
26807;BME280;14380;49.910;6.792;2023-04-03T03:45:43;99808.06;;;1.40;100.00
26807;BME280;14380;49.910;6.792;2023-04-03T03:48:10;99808.94;;;1.39;100.00
26807;BME280;14380;49.910;6.792;2023-04-03T03:50:38;99811.56;;;1.37;100.00
26807;BME280;14380;49.910;6.792;2023-04-03T03:53:05;99804.63;;;1.48;100.00
26807;BME280;14380;49.910;6.792;2023-04-03T03:55:31;99806.34;;;1.50;100.00
26807;BME280;14380;49.910;6.792;2023-04-03T03:57:58;99802.03;;;1.31;100.00
26807;BME280;14380;49.910;6.792;2023-04-03T04:00:25;99805.50;;;1.29;100.00
26807;BME280;14380;49.910;6.792;2023-04-03T04:02:51;99801.16;;;1.25;100.00
26807;BME280;14380;49.910;6.792;2023-04-03T04:05:18;99796.81;;;1.27;100.00
26807;BME280;14380;49.910;6.792;2023-04-03T04:07:46;99808.09;;;1.16;100.00
26807;BME280;14380;49.910;6.792;2023-04-03T04:10:13;99802.88;;;1.40;100.00
26807;BME280;14380;49.910;6.792;2023-04-03T04:12:40;99805.50;;;1.27;100.00
26807;BME280;14380;49.910;6.792;2023-04-03T04:15:07;99802.88;;;1.37;100.00
26807;BME280;14380;49.910;6.792;2023-04-03T04:17:35;99802.03;;;1.22;100.00
26807;BME280;14380;49.910;6.792;2023-04-03T04:20:02;99806.38;;;1.14;100.00
26807;BME280;14380;49.910;6.792;2023-04-03T04:22:30;99804.63;;;1.21;100.00
26807;BME280;14380;49.910;6.792;2023-04-03T04:24:58;99810.72;;;1.07;100.00
26807;BME280;14380;49.910;6.792;2023-04-03T04:27:25;99810.72;;;1.24;100.00
26807;BME280;14380;49.910;6.792;2023-04-03T04:29:51;99808.97;;;1.20;100.00
26807;BME280;14380;49.910;6.792;2023-04-03T04:32:18;99807.22;;;1.36;100.00
26807;BME280;14380;49.910;6.792;2023-04-03T04:34:44;99808.09;;;1.27;100.00
26807;BME280;14380;49.910;6.792;2023-04-03T04:37:11;99809.81;;;1.36;100.00
26807;BME280;14380;49.910;6.792;2023-04-03T04:39:37;99813.28;;;1.12;100.00
26807;BME280;14380;49.910;6.792;2023-04-03T04:42:06;99811.56;;;1.28;100.00
26807;BME280;14380;49.910;6.792;2023-04-03T04:44:37;99804.59;;;1.11;100.00
26807;BME280;14380;49.910;6.792;2023-04-03T04:47:04;99809.81;;;1.21;100.00
26807;BME280;14380;49.910;6.792;2023-04-03T04:49:31;99807.22;;;1.16;100.00
26807;BME280;14380;49.910;6.792;2023-04-03T04:51:57;99813.31;;;1.04;100.00
26807;BME280;14380;49.910;6.792;2023-04-03T04:54:24;99803.75;;;0.94;100.00
26807;BME280;14380;49.910;6.792;2023-04-03T04:56:50;99814.13;;;0.95;100.00
26807;BME280;14380;49.910;6.792;2023-04-03T04:59:18;99809.84;;;0.99;100.00
26807;BME280;14380;49.910;6.792;2023-04-03T05:01:45;99806.34;;;1.12;100.00
26807;BME280;14380;49.910;6.792;2023-04-03T05:04:12;99808.97;;;1.04;100.00
26807;BME280;14380;49.910;6.792;2023-04-03T05:06:39;99816.75;;;0.95;100.00
26807;BME280;14380;49.910;6.792;2023-04-03T05:09:05;99815.00;;;0.91;100.00
26807;BME280;14380;49.910;6.792;2023-04-03T05:11:32;99812.41;;;0.97;100.00
26807;BME280;14380;49.910;6.792;2023-04-03T05:13:59;99812.38;;;0.69;100.00
26807;BME280;14380;49.910;6.792;2023-04-03T05:16:27;99822.78;;;0.76;100.00
26807;BME280;14380;49.910;6.792;2023-04-03T05:18:53;99822.75;;;0.68;100.00
26807;BME280;14380;49.910;6.792;2023-04-03T05:21:20;99828.84;;;0.71;100.00
26807;BME280;14380;49.910;6.792;2023-04-03T05:23:48;99829.75;;;0.86;100.00
26807;BME280;14380;49.910;6.792;2023-04-03T05:26:15;99831.44;;;0.73;100.00
26807;BME280;14380;49.910;6.792;2023-04-03T05:28:41;99829.72;;;0.81;100.00
26807;BME280;14380;49.910;6.792;2023-04-03T05:31:08;99829.75;;;0.80;100.00
26807;BME280;14380;49.910;6.792;2023-04-03T05:33:36;99834.94;;;0.77;100.00
26807;BME280;14380;49.910;6.792;2023-04-03T05:36:04;99840.16;;;1.00;100.00
26807;BME280;14380;49.910;6.792;2023-04-03T05:38:31;99841.03;;;1.03;100.00
26807;BME280;14380;49.910;6.792;2023-04-03T05:40:58;99839.28;;;0.87;100.00
26807;BME280;14380;49.910;6.792;2023-04-03T05:43:25;99842.75;;;0.87;100.00
26807;BME280;14380;49.910;6.792;2023-04-03T05:45:52;99840.97;;;0.71;100.00
26807;BME280;14380;49.910;6.792;2023-04-03T05:48:18;99853.13;;;0.80;100.00
26807;BME280;14380;49.910;6.792;2023-04-03T05:50:47;99847.06;;;0.96;100.00
26807;BME280;14380;49.910;6.792;2023-04-03T05:53:17;99850.56;;;1.00;100.00
26807;BME280;14380;49.910;6.792;2023-04-03T05:55:45;99856.63;;;1.14;100.00
26807;BME280;14380;49.910;6.792;2023-04-03T05:58:11;99865.31;;;1.07;100.00
26807;BME280;14380;49.910;6.792;2023-04-03T06:00:38;99860.13;;;1.35;100.00
26807;BME280;14380;49.910;6.792;2023-04-03T06:03:05;99866.19;;;1.11;100.00
26807;BME280;14380;49.910;6.792;2023-04-03T06:05:33;99863.63;;;1.32;100.00
26807;BME280;14380;49.910;6.792;2023-04-03T06:08:01;99865.34;;;1.47;100.00
26807;BME280;14380;49.910;6.792;2023-04-03T06:10:28;99862.69;;;1.02;100.00
26807;BME280;14380;49.910;6.792;2023-04-03T06:12:55;99870.53;;;1.40;100.00
26807;BME280;14380;49.910;6.792;2023-04-03T06:15:21;99865.34;;;1.30;100.00
26807;BME280;14380;49.910;6.792;2023-04-03T06:17:48;99870.53;;;1.49;100.00
26807;BME280;14380;49.910;6.792;2023-04-03T06:20:15;99864.41;;;1.84;100.00
26807;BME280;14380;49.910;6.792;2023-04-03T06:22:41;99871.34;;;2.04;100.00
26807;BME280;14380;49.910;6.792;2023-04-03T06:25:09;99867.81;;;2.25;100.00
26807;BME280;14380;49.910;6.792;2023-04-03T06:27:36;99867.75;;;2.36;100.00
26807;BME280;14380;49.910;6.792;2023-04-03T06:30:03;99874.56;;;2.68;100.00
26807;BME280;14380;49.910;6.792;2023-04-03T06:32:31;99871.06;;;2.77;100.00
26807;BME280;14380;49.910;6.792;2023-04-03T06:34:58;99870.94;;;2.97;100.00
26807;BME280;14380;49.910;6.792;2023-04-03T06:37:25;99875.19;;;3.12;100.00
26807;BME280;14380;49.910;6.792;2023-04-03T06:39:54;99879.19;;;3.60;100.00
26807;BME280;14380;49.910;6.792;2023-04-03T06:42:22;99877.28;;;3.77;99.32
26807;BME280;14380;49.910;6.792;2023-04-03T06:44:49;99882.69;;;3.55;99.58
26807;BME280;14380;49.910;6.792;2023-04-03T06:47:16;99880.53;;;4.01;100.00
26807;BME280;14380;49.910;6.792;2023-04-03T06:49:43;99887.50;;;4.00;99.51
26807;BME280;14380;49.910;6.792;2023-04-03T06:52:10;99880.19;;;4.32;97.56
26807;BME280;14380;49.910;6.792;2023-04-03T06:54:37;99883.38;;;4.57;95.98
26807;BME280;14380;49.910;6.792;2023-04-03T06:57:04;99888.66;;;4.56;95.79
26807;BME280;14380;49.910;6.792;2023-04-03T06:59:32;99889.53;;;4.53;95.26
26807;BME280;14380;49.910;6.792;2023-04-03T07:01:58;99881.47;;;4.72;94.44
26807;BME280;14380;49.910;6.792;2023-04-03T07:04:25;99888.22;;;4.88;93.69
26807;BME280;14380;49.910;6.792;2023-04-03T07:06:52;99895.94;;;4.99;93.21
26807;BME280;14380;49.910;6.792;2023-04-03T07:09:18;99895.47;;;4.68;91.86
26807;BME280;14380;49.910;6.792;2023-04-03T07:11:46;99899.47;;;4.95;91.20
26807;BME280;14380;49.910;6.792;2023-04-03T07:14:12;99900.97;;;5.12;91.26
26807;BME280;14380;49.910;6.792;2023-04-03T07:16:41;99898.88;;;5.35;91.02
26807;BME280;14380;49.910;6.792;2023-04-03T07:19:08;99901.50;;;5.35;90.12
26807;BME280;14380;49.910;6.792;2023-04-03T07:21:35;99895.47;;;5.30;89.01
26807;BME280;14380;49.910;6.792;2023-04-03T07:24:01;99894.50;;;5.38;88.86
26807;BME280;14380;49.910;6.792;2023-04-03T07:26:28;99911.91;;;5.40;87.08
26807;BME280;14380;49.910;6.792;2023-04-03T07:28:54;99905.34;;;5.69;86.47
26807;BME280;14380;49.910;6.792;2023-04-03T07:31:21;99904.38;;;5.18;86.76
26807;BME280;14380;49.910;6.792;2023-04-03T07:33:49;99903.91;;;5.49;87.50
26807;BME280;14380;49.910;6.792;2023-04-03T07:36:18;99910.50;;;5.74;87.41
26807;BME280;14380;49.910;6.792;2023-04-03T07:38:45;99913.03;;;5.80;86.36
26807;BME280;14380;49.910;6.792;2023-04-03T07:41:14;99911.53;;;5.63;86.08
26807;BME280;14380;49.910;6.792;2023-04-03T07:43:42;99909.22;;;5.98;83.92
26807;BME280;14380;49.910;6.792;2023-04-03T07:46:10;99905.63;;;6.05;83.31
26807;BME280;14380;49.910;6.792;2023-04-03T07:48:38;99898.44;;;6.17;84.63
26807;BME280;14380;49.910;6.792;2023-04-03T07:51:06;99900.22;;;6.13;84.29
26807;BME280;14380;49.910;6.792;2023-04-03T07:53:33;99907.25;;;6.13;83.05
26807;BME280;14380;49.910;6.792;2023-04-03T07:56:00;99903.78;;;6.10;82.60
26807;BME280;14380;49.910;6.792;2023-04-03T07:58:29;99902.19;;;5.99;79.80
26807;BME280;14380;49.910;6.792;2023-04-03T08:00:56;99902.41;;;6.38;80.42
26807;BME280;14380;49.910;6.792;2023-04-03T08:03:23;99909.56;;;6.30;79.95
26807;BME280;14380;49.910;6.792;2023-04-03T08:05:50;99907.25;;;6.13;80.54
26807;BME280;14380;49.910;6.792;2023-04-03T08:08:21;99911.34;;;6.28;80.05
26807;BME280;14380;49.910;6.792;2023-04-03T08:10:49;99904.38;;;6.27;79.24
26807;BME280;14380;49.910;6.792;2023-04-03T08:13:16;99900.97;;;6.21;78.13
26807;BME280;14380;49.910;6.792;2023-04-03T08:15:43;99901.94;;;6.16;78.78
26807;BME280;14380;49.910;6.792;2023-04-03T08:18:10;99914.81;;;6.28;77.62
26807;BME280;14380;49.910;6.792;2023-04-03T08:20:38;99904.88;;;6.44;79.06
26807;BME280;14380;49.910;6.792;2023-04-03T08:23:05;99896.38;;;6.33;77.62
26807;BME280;14380;49.910;6.792;2023-04-03T08:25:33;99902.31;;;6.43;77.63
26807;BME280;14380;49.910;6.792;2023-04-03T08:28:00;99909.41;;;6.37;76.46
26807;BME280;14380;49.910;6.792;2023-04-03T08:30:27;99898.22;;;6.28;76.18
26807;BME280;14380;49.910;6.792;2023-04-03T08:32:54;99898.53;;;6.98;76.93
26807;BME280;14380;49.910;6.792;2023-04-03T08:35:21;99905.41;;;6.62;74.38
26807;BME280;14380;49.910;6.792;2023-04-03T08:37:47;99894.31;;;6.90;75.50
26807;BME280;14380;49.910;6.792;2023-04-03T08:40:16;99896.56;;;7.08;75.58
26807;BME280;14380;49.910;6.792;2023-04-03T08:42:51;99902.97;;;6.95;74.16
26807;BME280;14380;49.910;6.792;2023-04-03T08:45:26;99906.78;;;7.21;75.08
26807;BME280;14380;49.910;6.792;2023-04-03T08:47:58;99908.34;;;7.29;74.07
26807;BME280;14380;49.910;6.792;2023-04-03T08:50:31;99913.41;;;7.37;75.68
26807;BME280;14380;49.910;6.792;2023-04-03T08:53:01;99909.38;;;7.22;71.55
26807;BME280;14380;49.910;6.792;2023-04-03T08:55:33;99903.78;;;6.98;73.03
26807;BME280;14380;49.910;6.792;2023-04-03T08:58:05;99906.41;;;7.36;71.39
26807;BME280;14380;49.910;6.792;2023-04-03T09:00:39;99911.22;;;7.19;71.14
26807;BME280;14380;49.910;6.792;2023-04-03T09:03:12;99902.44;;;7.20;71.59
26807;BME280;14380;49.910;6.792;2023-04-03T09:05:42;99912.06;;;7.19;70.53
26807;BME280;14380;49.910;6.792;2023-04-03T09:08:16;99905.38;;;7.43;68.96
26807;BME280;14380;49.910;6.792;2023-04-03T09:10:45;99912.13;;;7.16;71.89
26807;BME280;14380;49.910;6.792;2023-04-03T09:13:22;99921.28;;;7.37;71.00
26807;BME280;14380;49.910;6.792;2023-04-03T09:15:51;99910.59;;;7.07;70.19
26807;BME280;14380;49.910;6.792;2023-04-03T09:18:21;99914.41;;;7.69;69.08
26807;BME280;14380;49.910;6.792;2023-04-03T09:20:56;99907.59;;;7.61;69.86
26807;BME280;14380;49.910;6.792;2023-04-03T09:23:28;99908.75;;;7.50;71.52
26807;BME280;14380;49.910;6.792;2023-04-03T09:26:01;99908.19;;;7.36;68.93
26807;BME280;14380;49.910;6.792;2023-04-03T09:28:33;99905.69;;;8.35;71.06
26807;BME280;14380;49.910;6.792;2023-04-03T09:31:00;99905.06;;;7.92;67.75
26807;BME280;14380;49.910;6.792;2023-04-03T09:33:29;99904.63;;;7.74;67.95
26807;BME280;14380;49.910;6.792;2023-04-03T09:35:56;99900.88;;;7.49;68.03
26807;BME280;14380;49.910;6.792;2023-04-03T09:38:23;99897.47;;;7.45;67.82
26807;BME280;14380;49.910;6.792;2023-04-03T09:41:04;99895.88;;;7.38;68.76
26807;BME280;14380;49.910;6.792;2023-04-03T09:43:33;99901.50;;;7.60;68.81
26807;BME280;14380;49.910;6.792;2023-04-03T09:46:21;99900.25;;;7.73;66.56
26807;BME280;14380;49.910;6.792;2023-04-03T09:48:52;99904.19;;;7.57;66.63
26807;BME280;14380;49.910;6.792;2023-04-03T09:51:25;99902.97;;;7.34;68.36
26807;BME280;14380;49.910;6.792;2023-04-03T09:53:53;99900.47;;;7.29;66.79
26807;BME280;14380;49.910;6.792;2023-04-03T09:56:22;99898.09;;;7.17;67.74
26807;BME280;14380;49.910;6.792;2023-04-03T09:59:06;99896.78;;;7.73;65.73
26807;BME280;14380;49.910;6.792;2023-04-03T10:01:35;99894.09;;;8.09;67.85
26807;BME280;14380;49.910;6.792;2023-04-03T10:04:05;99898.03;;;7.58;66.22
26807;BME280;14380;49.910;6.792;2023-04-03T10:06:34;99901.22;;;7.71;67.06
26807;BME280;14380;49.910;6.792;2023-04-03T10:09:04;99888.66;;;8.50;67.67
26807;BME280;14380;49.910;6.792;2023-04-03T10:11:31;99904.63;;;7.74;65.78
26807;BME280;14380;49.910;6.792;2023-04-03T10:14:01;99895.94;;;7.72;65.44
26807;BME280;14380;49.910;6.792;2023-04-03T10:16:35;99899.84;;;7.91;66.33
26807;BME280;14380;49.910;6.792;2023-04-03T10:19:34;99901.09;;;7.76;65.88
26807;BME280;14380;49.910;6.792;2023-04-03T10:22:04;99892.28;;;7.78;65.25
26807;BME280;14380;49.910;6.792;2023-04-03T10:24:38;99877.28;;;7.82;65.41
26807;BME280;14380;49.910;6.792;2023-04-03T10:27:13;99890.31;;;8.19;65.56
26807;BME280;14380;49.910;6.792;2023-04-03T10:29:50;99890.69;;;7.71;64.49
26807;BME280;14380;49.910;6.792;2023-04-03T10:32:23;99885.03;;;7.52;64.60
26807;BME280;14380;49.910;6.792;2023-04-03T10:34:58;99890.94;;;7.62;66.50
26807;BME280;14380;49.910;6.792;2023-04-03T10:37:30;99881.44;;;7.18;64.15
26807;BME280;14380;49.910;6.792;2023-04-03T10:40:13;99872.44;;;7.66;65.40
26807;BME280;14380;49.910;6.792;2023-04-03T10:42:44;99876.31;;;7.50;63.85
26807;BME280;14380;49.910;6.792;2023-04-03T10:45:22;99881.81;;;7.40;64.48
26807;BME280;14380;49.910;6.792;2023-04-03T10:48:00;99865.84;;;7.84;63.08
26807;BME280;14380;49.910;6.792;2023-04-03T10:50:36;99867.75;;;8.74;63.99
26807;BME280;14380;49.910;6.792;2023-04-03T10:53:08;99857.00;;;9.10;62.58
26807;BME280;14380;49.910;6.792;2023-04-03T10:55:43;99861.16;;;8.89;61.98
26807;BME280;14380;49.910;6.792;2023-04-03T10:58:20;99864.13;;;8.78;63.69
26807;BME280;14380;49.910;6.792;2023-04-03T11:00:54;99867.38;;;8.25;62.20
26807;BME280;14380;49.910;6.792;2023-04-03T11:03:29;99866.41;;;9.19;64.41
26807;BME280;14380;49.910;6.792;2023-04-03T11:05:59;99862.59;;;9.01;63.39
26807;BME280;14380;49.910;6.792;2023-04-03T11:08:33;99872.84;;;8.80;62.51
26807;BME280;14380;49.910;6.792;2023-04-03T11:11:06;99852.53;;;9.41;61.66
26807;BME280;14380;49.910;6.792;2023-04-03T11:13:38;99858.78;;;8.81;62.48
26807;BME280;14380;49.910;6.792;2023-04-03T11:16:13;99858.19;;;8.71;61.65
26807;BME280;14380;49.910;6.792;2023-04-03T11:18:45;99857.25;;;9.02;60.94
26807;BME280;14380;49.910;6.792;2023-04-03T11:21:17;99850.84;;;8.83;60.75
26807;BME280;14380;49.910;6.792;2023-04-03T11:23:47;99849.78;;;8.27;60.89
26807;BME280;14380;49.910;6.792;2023-04-03T11:26:17;99853.88;;;8.69;62.43
26807;BME280;14380;49.910;6.792;2023-04-03T11:28:46;99849.16;;;8.80;60.93
26807;BME280;14380;49.910;6.792;2023-04-03T11:31:26;99851.50;;;8.89;62.88
26807;BME280;14380;49.910;6.792;2023-04-03T11:34:06;99843.25;;;8.72;63.18
26807;BME280;14380;49.910;6.792;2023-04-03T11:36:40;99845.47;;;9.14;63.07
26807;BME280;14380;49.910;6.792;2023-04-03T11:39:18;99854.91;;;9.21;62.66
26807;BME280;14380;49.910;6.792;2023-04-03T11:41:47;99844.41;;;9.20;61.35
26807;BME280;14380;49.910;6.792;2023-04-03T11:44:33;99851.31;;;8.66;62.94
26807;BME280;14380;49.910;6.792;2023-04-03T11:47:05;99835.81;;;8.56;59.38
26807;BME280;14380;49.910;6.792;2023-04-03T11:50:06;99838.16;;;9.22;62.67
26807;BME280;14380;49.910;6.792;2023-04-03T11:52:58;99834.41;;;9.03;61.56
26807;BME280;14380;49.910;6.792;2023-04-03T11:55:59;99823.84;;;9.58;61.61
26807;BME280;14380;49.910;6.792;2023-04-03T11:58:28;99825.28;;;9.13;58.67
26807;BME280;14380;49.910;6.792;2023-04-03T12:00:57;99829.19;;;9.28;58.46
26807;BME280;14380;49.910;6.792;2023-04-03T12:09:56;99822.16;;;9.29;60.39
26807;BME280;14380;49.910;6.792;2023-04-03T12:12:35;99826.94;;;9.95;58.73
26807;BME280;14380;49.910;6.792;2023-04-03T12:15:21;99812.53;;;9.80;59.07
26807;BME280;14380;49.910;6.792;2023-04-03T12:17:49;99820.19;;;9.08;57.92
26807;BME280;14380;49.910;6.792;2023-04-03T12:20:54;99822.16;;;9.02;60.12
26807;BME280;14380;49.910;6.792;2023-04-03T12:23:28;99805.72;;;9.22;59.43
26807;BME280;14380;49.910;6.792;2023-04-03T12:26:04;99807.63;;;9.69;60.93
26807;BME280;14380;49.910;6.792;2023-04-03T12:28:37;99807.31;;;9.53;59.21
26807;BME280;14380;49.910;6.792;2023-04-03T12:31:08;99810.00;;;8.98;59.01
26807;BME280;14380;49.910;6.792;2023-04-03T12:33:49;99808.34;;;9.22;58.58
26807;BME280;14380;49.910;6.792;2023-04-03T12:36:28;99798.38;;;9.82;58.17
26807;BME280;14380;49.910;6.792;2023-04-03T12:39:16;99804.38;;;9.35;57.31
26807;BME280;14380;49.910;6.792;2023-04-03T12:41:53;99795.19;;;9.20;57.39
26807;BME280;14380;49.910;6.792;2023-04-03T12:44:35;99791.22;;;9.61;56.22
26807;BME280;14380;49.910;6.792;2023-04-03T12:47:18;99799.88;;;9.39;57.82
26807;BME280;14380;49.910;6.792;2023-04-03T12:49:49;99794.13;;;9.53;57.23
26807;BME280;14380;49.910;6.792;2023-04-03T12:52:26;99782.91;;;9.72;57.88
26807;BME280;14380;49.910;6.792;2023-04-03T12:54:57;99792.44;;;10.01;59.91
26807;BME280;14380;49.910;6.792;2023-04-03T12:57:26;99781.56;;;10.10;58.27
26807;BME280;14380;49.910;6.792;2023-04-03T12:59:54;99779.59;;;10.16;58.94
26807;BME280;14380;49.910;6.792;2023-04-03T13:02:25;99793.75;;;9.89;58.23
26807;BME280;14380;49.910;6.792;2023-04-03T13:04:53;99781.88;;;9.25;56.12
26807;BME280;14380;49.910;6.792;2023-04-03T13:07:24;99766.34;;;9.93;58.45
26807;BME280;14380;49.910;6.792;2023-04-03T13:10:14;99775.66;;;9.53;56.75
26807;BME280;14380;49.910;6.792;2023-04-03T13:12:51;99774.22;;;9.44;57.00
26807;BME280;14380;49.910;6.792;2023-04-03T13:15:20;99773.31;;;10.20;57.73
26807;BME280;14380;49.910;6.792;2023-04-03T13:17:48;99764.97;;;10.31;56.91
26807;BME280;14380;49.910;6.792;2023-04-03T13:20:20;99771.06;;;10.56;57.95
26807;BME280;14380;49.910;6.792;2023-04-03T13:22:52;99763.00;;;9.88;56.03
26807;BME280;14380;49.910;6.792;2023-04-03T13:25:21;99769.59;;;9.51;57.06
26807;BME280;14380;49.910;6.792;2023-04-03T13:27:50;99761.16;;;9.41;56.28
26807;BME280;14380;49.910;6.792;2023-04-03T13:30:23;99748.34;;;10.05;55.90